createdAt,value
2019-04-01T00:00:33.724Z,24.93
2019-04-01T00:03:02.613Z,24.90
2019-04-01T00:05:31.192Z,22.90
2019-04-01T00:07:59.742Z,24.13
2019-04-01T00:10:28.326Z,24.93
2019-04-01T00:12:56.941Z,23.60
2019-04-01T00:15:25.585Z,22.90
2019-04-01T00:17:54.139Z,21.43
2019-04-01T00:20:22.712Z,24.63
2019-04-01T00:22:51.353Z,22.20
2019-04-01T00:25:20.050Z,22.53
2019-04-01T00:27:48.272Z,23.37
2019-04-01T00:30:16.857Z,24.57
2019-04-01T00:32:45.418Z,22.50
2019-04-01T00:35:14.070Z,21.67
2019-04-01T00:37:42.613Z,22.27
2019-04-01T00:40:11.932Z,21.17
2019-04-01T00:43:00.263Z,24.63
2019-04-01T00:45:30.473Z,22.53
2019-04-01T00:47:59.026Z,23.63
2019-04-01T00:50:27.606Z,24.13
2019-04-01T00:52:56.153Z,22.17
2019-04-01T00:55:24.703Z,22.93
2019-04-01T00:57:53.286Z,23.23
2019-04-01T01:00:21.573Z,22.20
2019-04-01T01:02:50.190Z,23.23
2019-04-01T01:05:18.692Z,22.50
2019-04-01T01:07:47.278Z,21.80
2019-04-01T01:10:15.969Z,22.57
2019-04-01T01:12:44.545Z,22.50
2019-04-01T01:15:13.438Z,22.17
2019-04-01T01:17:42.014Z,22.97
2019-04-01T01:20:10.746Z,22.37
2019-04-01T01:22:39.323Z,21.30
2019-04-01T01:25:08.104Z,22.37
2019-04-01T01:27:36.754Z,22.50
2019-04-01T01:30:06.908Z,22.47
2019-04-01T01:32:35.493Z,21.70
2019-04-01T01:35:04.510Z,22.30
2019-04-01T01:37:33.159Z,22.70
2019-04-01T01:40:01.715Z,21.17
2019-04-01T01:42:29.967Z,23.43
2019-04-01T01:44:58.522Z,21.80
2019-04-01T01:47:27.088Z,21.47
2019-04-01T01:49:55.639Z,21.83
2019-04-01T01:52:24.219Z,23.77
2019-04-01T01:54:52.770Z,20.60
2019-04-01T01:57:21.004Z,21.07
2019-04-01T01:59:49.224Z,22.03
2019-04-01T02:02:17.801Z,20.87
2019-04-01T02:04:46.353Z,21.73
2019-04-01T02:07:14.932Z,21.53
2019-04-01T02:09:43.481Z,21.70
2019-04-01T02:12:12.126Z,20.87
2019-04-01T02:14:40.341Z,21.20
2019-04-01T02:17:08.921Z,21.50
2019-04-01T02:19:37.469Z,22.40
2019-04-01T02:22:06.045Z,20.70
2019-04-01T02:24:34.861Z,21.83
2019-04-01T02:27:03.440Z,21.20
2019-04-01T02:29:31.989Z,21.90
2019-04-01T02:32:00.638Z,22.17
2019-04-01T02:34:29.180Z,21.87
2019-04-01T02:36:57.759Z,20.67
2019-04-01T02:39:26.321Z,21.33
2019-04-01T02:41:54.894Z,23.87
2019-04-01T02:44:23.678Z,22.50
2019-04-01T02:46:52.304Z,23.77
2019-04-01T02:49:20.877Z,20.60
2019-04-01T02:51:49.433Z,22.97
2019-04-01T02:54:18.009Z,22.43
2019-04-01T02:56:46.557Z,21.30
2019-04-01T02:59:15.137Z,21.57
2019-04-01T03:01:43.681Z,23.73
2019-04-01T03:04:12.278Z,22.03
2019-04-01T03:06:40.807Z,22.37
2019-04-01T03:09:09.403Z,22.40
2019-04-01T03:11:37.957Z,22.03
2019-04-01T03:14:06.629Z,22.87
2019-04-01T03:16:35.158Z,23.43
2019-04-01T03:19:03.733Z,21.33
2019-04-01T03:21:32.280Z,21.63
2019-04-01T03:24:00.858Z,21.47
2019-04-01T03:26:29.420Z,21.53
2019-04-01T03:28:57.991Z,22.40
2019-04-01T03:31:26.578Z,21.10
2019-04-01T03:33:55.130Z,22.30
2019-04-01T03:36:23.364Z,23.10
2019-04-01T03:38:51.610Z,23.53
2019-04-01T03:41:20.639Z,23.13
2019-04-01T03:43:49.219Z,23.10
2019-04-01T03:46:17.833Z,20.53
2019-04-01T03:48:46.409Z,21.63
2019-04-01T03:51:15.097Z,22.87
2019-04-01T03:53:44.813Z,22.73
2019-04-01T03:56:13.105Z,21.90
2019-04-01T03:58:41.665Z,23.43
2019-04-01T04:01:10.227Z,23.00
2019-04-01T04:03:38.809Z,23.27
2019-04-01T04:06:07.363Z,23.30
2019-04-01T04:08:35.944Z,21.83
2019-04-01T04:11:04.489Z,21.23
2019-04-01T04:13:33.070Z,21.93
2019-04-01T04:16:01.619Z,20.87
2019-04-01T04:18:30.165Z,21.40
2019-04-01T04:20:58.743Z,21.80
2019-04-01T04:23:27.362Z,20.77
2019-04-01T04:25:55.943Z,22.03
2019-04-01T04:28:24.174Z,21.27
2019-04-01T04:30:52.492Z,21.97
2019-04-01T04:33:21.054Z,21.90
2019-04-01T04:35:49.636Z,22.37
2019-04-01T04:38:18.179Z,19.60
2019-04-01T04:40:46.492Z,20.77
2019-04-01T04:43:15.045Z,20.57
2019-04-01T04:45:43.626Z,20.60
2019-04-01T04:48:12.318Z,20.23
2019-04-01T04:50:40.897Z,21.57
2019-04-01T04:53:09.530Z,20.97
2019-04-01T04:55:38.077Z,20.33
2019-04-01T04:58:06.657Z,20.57
2019-04-01T05:00:35.211Z,20.67
2019-04-01T05:03:03.463Z,20.07
2019-04-01T05:05:32.009Z,20.60
2019-04-01T05:08:00.656Z,20.93
2019-04-01T05:10:29.206Z,20.60
2019-04-01T05:12:57.861Z,20.13
2019-04-01T05:15:26.485Z,19.63
2019-04-01T05:17:55.059Z,21.20
2019-04-01T05:20:23.282Z,20.30
2019-04-01T05:22:51.997Z,20.30
2019-04-01T05:25:20.552Z,20.27
2019-04-01T05:27:49.502Z,19.67
2019-04-01T05:30:18.290Z,20.40
2019-04-01T05:32:49.573Z,20.10
2019-04-01T05:35:18.193Z,17.77
2019-04-01T05:37:46.910Z,20.03
2019-04-01T05:40:15.597Z,18.93
2019-04-01T05:42:43.846Z,18.23
2019-04-01T05:45:12.538Z,18.93
2019-04-01T05:47:42.817Z,19.07
2019-04-01T05:50:11.702Z,18.23
2019-04-01T05:52:40.421Z,18.47
2019-04-01T05:55:09.353Z,18.17
2019-04-01T05:57:38.019Z,17.43
2019-04-01T06:00:07.669Z,17.63
2019-04-01T06:02:36.245Z,16.97
2019-04-01T06:05:05.841Z,18.70
2019-04-01T06:07:34.534Z,18.93
2019-04-01T06:10:04.287Z,17.33
2019-04-01T06:12:32.913Z,17.57
2019-04-01T06:15:01.566Z,18.47
2019-04-01T06:17:30.320Z,17.23
2019-04-01T06:20:00.409Z,15.77
2019-04-01T06:22:29.131Z,17.87
2019-04-01T06:24:58.015Z,18.07
2019-04-01T06:27:27.134Z,17.33
2019-04-01T06:29:59.280Z,16.90
2019-04-01T06:32:27.117Z,15.50
2019-04-01T06:34:56.265Z,16.47
2019-04-01T06:37:24.961Z,18.07
2019-04-01T06:39:53.606Z,16.17
2019-04-01T06:42:22.211Z,16.27
2019-04-01T06:44:50.896Z,16.63
2019-04-01T06:47:19.885Z,15.67
2019-04-01T06:49:48.532Z,15.77
2019-04-01T06:52:17.082Z,14.53
2019-04-01T06:54:45.592Z,17.43
2019-04-01T06:57:13.820Z,20.23
2019-04-01T06:59:42.478Z,15.37
2019-04-01T07:02:11.169Z,15.37
2019-04-01T07:04:39.812Z,16.57
2019-04-01T07:07:18.766Z,15.33
2019-04-01T07:09:38.743Z,17.03
2019-04-01T07:12:07.276Z,16.77
2019-04-01T07:14:36.198Z,15.37
2019-04-01T07:17:04.482Z,16.40
2019-04-01T07:19:33.505Z,15.40
2019-04-01T07:22:02.193Z,15.37
2019-04-01T07:24:30.768Z,13.43
2019-04-01T07:26:59.505Z,15.13
2019-04-01T07:29:28.122Z,15.53
2019-04-01T07:31:57.080Z,15.10
2019-04-01T07:34:25.365Z,15.43
2019-04-01T07:36:55.390Z,15.80
2019-04-01T07:39:23.680Z,14.83
2019-04-01T07:41:52.408Z,15.80
2019-04-01T07:44:21.592Z,15.23
2019-04-01T07:46:53.758Z,14.93
2019-04-01T07:49:22.173Z,15.73
2019-04-01T07:51:50.910Z,15.73
2019-04-01T07:54:19.602Z,15.73
2019-04-01T07:56:48.523Z,15.43
2019-04-01T07:59:17.141Z,15.30
2019-04-01T08:01:45.799Z,15.30
2019-04-01T08:04:14.417Z,15.90
2019-04-01T08:06:46.847Z,15.07
2019-04-01T08:09:18.241Z,15.07
2019-04-01T08:11:49.896Z,15.97
2019-04-01T08:14:17.095Z,15.77
2019-04-01T08:16:45.809Z,15.60
2019-04-01T08:19:14.440Z,15.53
2019-04-01T08:21:43.091Z,15.73
2019-04-01T08:24:11.716Z,15.43
2019-04-01T08:26:40.914Z,16.43
2019-04-01T08:29:09.494Z,18.17
2019-04-01T08:31:38.114Z,16.70
2019-04-01T08:34:06.708Z,16.47
2019-04-01T08:36:34.928Z,17.27
2019-04-01T08:39:05.390Z,17.23
2019-04-01T08:41:34.014Z,16.40
2019-04-01T08:44:03.387Z,17.13
2019-04-01T08:46:33.628Z,16.73
2019-04-01T08:49:02.409Z,16.90
2019-04-01T08:51:31.209Z,17.33
2019-04-01T08:54:00.402Z,16.97
2019-04-01T08:56:29.024Z,17.03
2019-04-01T08:58:57.661Z,17.33
2019-04-01T09:01:34.990Z,15.17
2019-04-01T09:03:55.921Z,18.57
2019-04-01T09:06:24.153Z,17.07
2019-04-01T09:08:55.717Z,17.17
2019-04-01T09:11:24.334Z,17.77
2019-04-01T09:13:52.922Z,17.17
2019-04-01T09:16:21.645Z,17.20
2019-04-01T09:18:50.297Z,16.40
2019-04-01T09:21:18.849Z,18.23
2019-04-01T09:23:47.681Z,17.33
2019-04-01T09:26:16.226Z,17.87
2019-04-01T09:28:46.891Z,17.90
2019-04-01T09:31:15.421Z,17.53
2019-04-01T09:33:44.002Z,18.87
2019-04-01T09:36:12.562Z,15.97
2019-04-01T09:38:41.157Z,17.80
2019-04-01T09:41:13.107Z,15.93
2019-04-01T09:43:40.353Z,17.00
2019-04-01T09:46:09.009Z,17.47
2019-04-01T09:48:37.556Z,17.37
2019-04-01T09:51:06.321Z,15.30
2019-04-01T09:53:34.942Z,16.97
2019-04-01T09:56:05.145Z,16.70
2019-04-01T09:58:33.774Z,17.53
2019-04-01T10:01:05.078Z,17.97
2019-04-01T10:03:33.629Z,16.57
2019-04-01T10:06:02.219Z,16.87
2019-04-01T10:08:42.040Z,17.73
2019-04-01T10:11:00.986Z,17.90
2019-04-01T10:13:29.542Z,17.10
2019-04-01T10:15:58.124Z,17.50
2019-04-01T10:18:27.236Z,17.50
2019-04-01T10:20:55.845Z,17.63
2019-04-01T10:23:24.390Z,17.27
2019-04-01T10:25:53.023Z,16.40
2019-04-01T10:28:31.795Z,16.87
2019-04-01T10:30:54.715Z,17.17
2019-04-01T10:33:23.272Z,16.57
2019-04-01T10:35:51.855Z,17.83
2019-04-01T10:38:20.474Z,18.50
2019-04-01T10:40:49.136Z,18.43
2019-04-01T10:43:17.830Z,19.17
2019-04-01T10:45:46.481Z,17.83
2019-04-01T10:48:15.189Z,18.00
2019-04-01T10:50:43.726Z,18.30
2019-04-01T10:53:12.325Z,16.57
2019-04-01T10:55:40.615Z,17.17
2019-04-01T10:58:09.142Z,15.27
2019-04-01T11:00:37.804Z,18.27
2019-04-01T11:03:08.501Z,18.03
2019-04-01T11:05:38.101Z,18.47
2019-04-01T11:08:06.900Z,18.23
2019-04-01T11:10:35.432Z,16.20
2019-04-01T11:13:04.151Z,17.73
2019-04-01T11:15:32.704Z,17.70
2019-04-01T11:18:01.366Z,17.77
2019-04-01T11:20:29.918Z,18.03
2019-04-01T11:23:02.236Z,18.63
2019-04-01T11:25:28.443Z,19.03
2019-04-01T11:27:57.025Z,17.50
2019-04-01T11:30:25.641Z,19.13
2019-04-01T11:32:53.897Z,18.37
2019-04-01T11:35:22.455Z,17.93
2019-04-01T11:37:51.067Z,17.00
2019-04-01T11:40:19.938Z,17.57
2019-04-01T11:42:48.484Z,16.70
2019-04-01T11:45:17.194Z,17.07
2019-04-01T11:47:45.793Z,16.03
2019-04-01T11:50:18.371Z,17.50
2019-04-01T11:52:47.018Z,16.77
2019-04-01T11:55:15.635Z,18.07
2019-04-01T11:57:44.221Z,18.23
2019-04-01T12:00:19.316Z,16.50
2019-04-01T12:02:47.914Z,17.27
2019-04-01T12:05:16.449Z,17.03
2019-04-01T12:07:45.105Z,16.90
2019-04-01T12:10:13.789Z,16.60
2019-04-01T12:12:42.378Z,17.00
2019-04-01T12:15:12.445Z,17.50
2019-04-01T12:17:42.127Z,17.33
2019-04-01T12:20:11.078Z,16.80
2019-04-01T12:22:40.617Z,15.73
2019-04-01T12:25:09.362Z,16.57
2019-04-01T12:27:38.206Z,15.70
2019-04-01T12:30:07.095Z,16.87
2019-04-01T12:32:35.681Z,16.70
2019-04-01T12:35:05.574Z,15.03
2019-04-01T12:37:34.158Z,17.00
2019-04-01T12:40:02.735Z,16.17
2019-04-01T12:42:32.834Z,16.70
2019-04-01T12:45:01.381Z,16.43
2019-04-01T12:47:29.969Z,16.50
2019-04-01T12:49:58.522Z,16.80
2019-04-01T12:52:27.079Z,16.53
2019-04-01T12:54:55.657Z,16.57
2019-04-01T12:57:24.233Z,16.03
2019-04-01T12:59:53.575Z,16.40
2019-04-01T13:02:22.385Z,14.90
2019-04-01T13:04:51.586Z,15.73
2019-04-01T13:07:20.785Z,14.33
2019-04-01T13:09:49.466Z,16.27
2019-04-01T13:12:18.220Z,16.07
2019-04-01T13:14:47.369Z,14.73
2019-04-01T13:17:15.930Z,15.83
2019-04-01T13:19:45.022Z,14.87
2019-04-01T13:22:13.869Z,15.47
2019-04-01T13:24:42.122Z,14.97
2019-04-01T13:27:10.818Z,14.50
2019-04-01T13:29:39.407Z,13.87
2019-04-01T13:32:07.956Z,15.50
2019-04-01T13:34:36.613Z,15.17
2019-04-01T13:37:05.229Z,14.13
2019-04-01T13:39:33.830Z,15.00
2019-04-01T13:42:02.376Z,15.40
2019-04-01T13:44:37.357Z,14.00
2019-04-01T13:47:01.156Z,13.77
2019-04-01T13:49:29.739Z,14.30
2019-04-01T13:51:59.066Z,13.73
2019-04-01T13:54:28.234Z,13.03
2019-04-01T13:56:56.818Z,15.03
2019-04-01T13:59:25.400Z,14.20
2019-04-01T14:02:05.997Z,13.03
2019-04-01T14:04:34.623Z,12.70
2019-04-01T14:07:03.275Z,13.70
2019-04-01T14:09:31.895Z,12.30
2019-04-01T14:12:00.773Z,12.20
2019-04-01T14:14:29.334Z,12.80
2019-04-01T14:16:57.926Z,12.07
2019-04-01T14:19:26.470Z,12.07
2019-04-01T14:21:55.044Z,11.23
2019-04-01T14:24:23.600Z,11.60
2019-04-01T14:26:52.189Z,12.30
2019-04-01T14:29:20.409Z,12.73
2019-04-01T14:31:48.990Z,13.03
2019-04-01T14:34:23.222Z,11.70
2019-04-01T14:36:47.777Z,13.10
2019-04-01T14:39:16.405Z,12.13
2019-04-01T14:41:44.985Z,12.83
2019-04-01T14:44:16.577Z,13.57
2019-04-01T14:46:45.155Z,13.80
2019-04-01T14:49:13.737Z,14.30
2019-04-01T14:51:42.605Z,11.97
2019-04-01T14:54:10.904Z,12.50
2019-04-01T14:56:39.465Z,12.87
2019-04-01T14:59:08.053Z,13.17
2019-04-01T15:01:37.972Z,12.47
2019-04-01T15:04:06.590Z,12.90
2019-04-01T15:06:35.141Z,13.53
2019-04-01T15:09:05.596Z,15.63
2019-04-01T15:11:34.186Z,16.43
2019-04-01T15:14:02.746Z,16.00
2019-04-01T15:16:30.996Z,16.37
2019-04-01T15:19:01.090Z,16.90
2019-04-01T15:21:29.683Z,18.07
2019-04-01T15:23:58.253Z,15.57
2019-04-01T15:26:26.888Z,14.97
2019-04-01T15:28:55.446Z,16.17
2019-04-01T15:31:24.534Z,17.90
2019-04-01T15:33:53.985Z,17.13
2019-04-01T15:36:22.316Z,16.53
2019-04-01T15:38:51.119Z,16.37
2019-04-01T15:41:19.954Z,16.27
2019-04-01T15:43:48.534Z,15.37
2019-04-01T15:46:17.081Z,15.83
2019-04-01T15:48:45.665Z,15.07
2019-04-01T15:51:14.213Z,14.40
2019-04-01T15:53:42.842Z,13.90
2019-04-01T15:56:11.425Z,15.37
2019-04-01T15:58:40.050Z,14.17
2019-04-01T16:01:09.066Z,14.33
2019-04-01T16:03:37.613Z,14.30
2019-04-01T16:06:07.668Z,15.00
2019-04-01T16:08:36.521Z,14.43
2019-04-01T16:11:05.182Z,13.67
2019-04-01T16:13:33.739Z,15.10
2019-04-01T16:16:01.998Z,13.83
2019-04-01T16:18:31.118Z,14.43
2019-04-01T16:21:00.000Z,14.70
2019-04-01T16:23:28.551Z,15.33
2019-04-01T16:25:57.134Z,14.30
2019-04-01T16:28:25.684Z,15.73
2019-04-01T16:30:54.335Z,15.87
2019-04-01T16:33:22.893Z,14.53
2019-04-01T16:35:51.550Z,13.20
2019-04-01T16:38:20.134Z,15.23
2019-04-01T16:40:48.758Z,12.40
2019-04-01T16:43:17.593Z,14.00
2019-04-01T16:45:46.234Z,14.63
2019-04-01T16:48:14.826Z,15.13
2019-04-01T16:50:43.376Z,14.80
2019-04-01T16:53:11.934Z,14.67
2019-04-01T16:55:40.519Z,14.63
2019-04-01T16:58:09.062Z,14.97
2019-04-01T17:00:37.657Z,15.37
2019-04-01T17:03:06.250Z,14.23
2019-04-01T17:05:35.046Z,13.80
2019-04-01T17:08:03.693Z,14.73
2019-04-01T17:10:33.146Z,14.13
2019-04-01T17:13:02.107Z,13.73
2019-04-01T17:15:30.805Z,14.97
2019-04-01T17:17:59.529Z,13.67
2019-04-01T17:20:28.144Z,15.03
2019-04-01T17:22:56.802Z,14.13
2019-04-01T17:25:26.297Z,15.23
2019-04-01T17:27:55.177Z,14.37
2019-04-01T17:30:23.873Z,14.20
2019-04-01T17:32:52.452Z,14.43
2019-04-01T17:35:21.005Z,14.60
2019-04-01T17:37:49.585Z,14.33
2019-04-01T17:40:18.281Z,14.73
2019-04-01T17:42:47.098Z,13.57
2019-04-01T17:45:24.564Z,14.20
2019-04-01T17:47:53.294Z,14.47
2019-04-01T17:50:21.910Z,14.20
2019-04-01T17:52:50.498Z,15.30
2019-04-01T17:55:19.116Z,14.73
2019-04-01T17:57:47.701Z,15.07
2019-04-01T18:00:24.861Z,14.67
2019-04-01T18:02:53.144Z,15.07
2019-04-01T18:05:22.149Z,15.53
2019-04-01T18:07:50.853Z,14.97
2019-04-01T18:10:20.045Z,15.30
2019-04-01T18:12:48.742Z,14.13
2019-04-01T18:15:20.515Z,14.87
2019-04-01T18:17:47.725Z,14.63
2019-04-01T18:20:16.051Z,15.07
2019-04-01T18:22:44.596Z,14.47
2019-04-01T18:25:13.927Z,15.03
2019-04-01T18:27:43.395Z,15.43
2019-04-01T18:30:13.412Z,14.83
2019-04-01T18:32:41.961Z,14.50
2019-04-01T18:35:10.613Z,15.00
2019-04-01T18:37:39.169Z,15.23
2019-04-01T18:40:08.399Z,14.70
2019-04-01T18:42:36.954Z,15.33
2019-04-01T18:45:07.178Z,14.50
2019-04-01T18:47:38.782Z,14.97
2019-04-01T18:50:06.501Z,14.87
2019-04-01T18:52:35.057Z,13.87
2019-04-01T18:55:07.669Z,14.83
2019-04-01T18:57:35.256Z,13.97
2019-04-01T19:00:04.669Z,14.37
2019-04-01T19:02:33.225Z,14.93
2019-04-01T19:05:01.815Z,14.10
2019-04-01T19:07:30.362Z,14.57
2019-04-01T19:10:05.883Z,14.13
2019-04-01T19:12:29.152Z,14.73
2019-04-01T19:14:57.742Z,13.60
2019-04-01T19:17:26.368Z,13.93
2019-04-01T19:19:54.949Z,13.77
2019-04-01T19:22:23.641Z,14.00
2019-04-01T19:24:52.233Z,14.50
2019-04-01T19:27:21.973Z,13.63
2019-04-01T19:29:50.665Z,14.07
2019-04-01T19:32:19.217Z,13.63
2019-04-01T19:34:47.797Z,13.73
2019-04-01T19:37:18.191Z,13.30
2019-04-01T19:39:46.664Z,14.07
2019-04-01T19:42:15.219Z,13.90
2019-04-01T19:44:43.797Z,14.37
2019-04-01T19:47:12.348Z,14.57
2019-04-01T19:49:40.933Z,14.70
2019-04-01T19:52:09.855Z,14.10
2019-04-01T19:54:38.667Z,14.33
2019-04-01T19:57:07.281Z,13.30
2019-04-01T19:59:35.988Z,12.37
2019-04-01T20:02:04.324Z,13.47
2019-04-01T20:04:32.869Z,12.07
2019-04-01T20:07:01.522Z,13.80
2019-04-01T20:09:30.082Z,11.97
2019-04-01T20:11:58.673Z,13.13
2019-04-01T20:14:27.217Z,12.37
2019-04-01T20:16:55.861Z,12.83
2019-04-01T20:19:24.409Z,12.83
2019-04-01T20:21:52.985Z,12.67
2019-04-01T20:24:21.805Z,12.40
2019-04-01T20:26:50.376Z,12.97
2019-04-01T20:29:18.931Z,12.63
2019-04-01T20:31:47.518Z,13.87
2019-04-01T20:34:19.824Z,12.87
2019-04-01T20:36:46.307Z,12.47
2019-04-01T20:39:14.860Z,12.63
2019-04-01T20:41:43.504Z,11.97
2019-04-01T20:44:12.407Z,12.93
2019-04-01T20:46:41.302Z,13.13
2019-04-01T20:49:09.849Z,11.67
2019-04-01T20:51:38.438Z,12.33
2019-04-01T20:54:06.986Z,12.67
2019-04-01T20:56:35.237Z,12.27
2019-04-01T20:59:03.853Z,12.53
2019-04-01T21:01:32.402Z,11.53
2019-04-01T21:04:00.981Z,12.87
2019-04-01T21:06:29.601Z,13.17
2019-04-01T21:08:58.190Z,12.43
2019-04-01T21:11:26.732Z,12.33
2019-04-01T21:13:55.311Z,12.77
2019-04-01T21:16:23.862Z,12.37
2019-04-01T21:18:52.442Z,12.13
2019-04-01T21:21:26.770Z,12.87
2019-04-01T21:23:59.768Z,11.67
2019-04-01T21:26:28.575Z,12.20
2019-04-01T21:28:57.722Z,11.87
2019-04-01T21:31:25.947Z,12.33
2019-04-01T21:33:54.525Z,12.20
2019-04-01T21:36:23.141Z,12.77
2019-04-01T21:38:51.796Z,10.87
2019-04-01T21:41:20.608Z,11.83
2019-04-01T21:43:49.494Z,11.20
2019-04-01T21:46:18.118Z,11.73
2019-04-01T21:48:46.367Z,11.90
2019-04-01T21:51:14.915Z,12.20
2019-04-01T21:53:43.501Z,13.10
2019-04-01T21:56:12.053Z,11.63
2019-04-01T21:58:40.626Z,11.70
2019-04-01T22:01:09.981Z,12.17
2019-04-01T22:03:38.697Z,12.93
2019-04-01T22:06:06.922Z,12.17
2019-04-01T22:08:36.142Z,11.53
2019-04-01T22:11:04.793Z,12.20
2019-04-01T22:13:33.369Z,12.17
2019-04-01T22:16:01.913Z,11.63
2019-04-01T22:18:32.819Z,12.33
2019-04-01T22:21:00.705Z,11.90
2019-04-01T22:23:29.282Z,11.93
2019-04-01T22:25:58.904Z,12.13
2019-04-01T22:28:27.261Z,12.67
2019-04-01T22:30:55.806Z,11.53
2019-04-01T22:33:24.458Z,11.43
2019-04-01T22:35:53.042Z,11.17
2019-04-01T22:38:25.256Z,11.63
2019-04-01T22:40:51.887Z,12.13
2019-04-01T22:43:20.437Z,11.20
2019-04-01T22:45:49.278Z,11.17
2019-04-01T22:48:18.160Z,11.87
2019-04-01T22:50:46.744Z,11.17
2019-04-01T22:53:15.290Z,11.07
2019-04-01T22:55:43.874Z,11.63
2019-04-01T22:58:12.453Z,11.17
2019-04-01T23:00:41.305Z,10.63
2019-04-01T23:03:11.270Z,10.60
2019-04-01T23:05:39.933Z,11.97
2019-04-01T23:08:08.490Z,11.07
2019-04-01T23:10:37.074Z,10.90
2019-04-01T23:13:05.761Z,10.87
2019-04-01T23:15:34.348Z,11.27
2019-04-01T23:18:02.892Z,10.40
2019-04-01T23:20:33.248Z,10.87
2019-04-01T23:23:01.670Z,11.27
2019-04-01T23:25:30.321Z,10.70
2019-04-01T23:27:58.540Z,10.70
2019-04-01T23:30:27.130Z,11.10
2019-04-01T23:32:55.685Z,10.60
2019-04-01T23:35:24.372Z,10.70
2019-04-01T23:37:52.946Z,11.30
2019-04-01T23:40:21.501Z,10.70
2019-04-01T23:42:50.074Z,11.03
2019-04-01T23:45:18.296Z,11.07
2019-04-01T23:47:46.873Z,11.10
2019-04-01T23:50:15.492Z,10.50
2019-04-01T23:52:44.074Z,11.10
2019-04-01T23:55:12.694Z,12.03
2019-04-01T23:57:41.341Z,11.97
